Time;durP1;ratioP1;P1;durP2;ratioP2;P2;SDS_P1;SDS_P2;PMS_P1;PMS_P2;Temp;Humidity;BMP_temperature;BMP_pressure;BME280_temperature;BME280_humidity;BME280_pressure;Samples;Min_cycle;Max_cycle;Signal;HPM_P1;HPM_P2
2023/12/19 00:00:06;;;;;;;2.13;1.50;;;;;;;3.13;79.09;99246.34;5114248;28;20042;-55
2023/12/19 00:02:31;;;;;;;3.40;1.48;;;;;;;3.01;79.58;99241.75;5095430;28;20056;-60
2023/12/19 00:04:57;;;;;;;3.97;1.42;;;;;;;3.02;79.81;99246.13;5087457;28;20388;-57
2023/12/19 00:07:22;;;;;;;2.28;1.30;;;;;;;3.03;80.23;99241.69;5075061;28;20425;-59
2023/12/19 00:09:49;;;;;;;2.03;1.50;;;;;;;3.07;80.00;99236.13;5081185;28;20028;-55
2023/12/19 00:12:14;;;;;;;1.58;1.27;;;;;;;3.12;79.05;99236.72;5073210;28;20055;-60
2023/12/19 00:14:40;;;;;;;2.45;1.40;;;;;;;3.00;80.21;99235.63;5073031;28;20448;-61
2023/12/19 00:17:06;;;;;;;4.88;1.50;;;;;;;3.08;80.15;99244.91;5074533;28;20098;-62
2023/12/19 00:19:31;;;;;;;1.17;1.08;;;;;;;3.07;79.46;99233.50;5073202;28;20121;-61
2023/12/19 00:21:57;;;;;;;2.03;1.50;;;;;;;3.08;80.17;99242.25;5073411;28;20333;-58
2023/12/19 00:24:23;;;;;;;3.38;1.25;;;;;;;3.05;80.02;99237.16;5072665;28;20044;-60
2023/12/19 00:26:48;;;;;;;3.47;1.48;;;;;;;2.75;80.45;99201.00;5073582;28;20028;-60
2023/12/19 00:29:14;;;;;;;1.95;1.25;;;;;;;2.88;80.44;99225.75;5073030;28;20053;-58
2023/12/19 00:31:39;;;;;;;1.60;1.40;;;;;;;2.94;80.19;99243.94;5079101;28;20027;-60
2023/12/19 00:34:05;;;;;;;1.38;1.20;;;;;;;2.91;80.67;99237.97;5093402;28;20028;-60
2023/12/19 00:36:30;;;;;;;3.47;1.25;;;;;;;2.87;80.35;99240.78;5087509;28;20100;-60
2023/12/19 00:38:56;;;;;;;3.40;1.20;;;;;;;2.92;80.11;99235.25;5075850;28;20036;-57
2023/12/19 00:41:22;;;;;;;1.70;0.95;;;;;;;2.95;80.28;99237.72;5111163;28;20172;-58
2023/12/19 00:43:47;;;;;;;1.98;1.10;;;;;;;2.99;80.10;99230.44;5113567;28;20027;-59
2023/12/19 00:46:13;;;;;;;2.67;1.10;;;;;;;2.76;80.81;99187.69;5099511;28;20440;-60
2023/12/19 00:48:39;;;;;;;3.10;1.25;;;;;;;2.97;81.11;99217.31;5092867;28;20385;-60
2023/12/19 00:51:10;;;;;;;3.92;1.20;;;;;;;3.07;81.22;99233.50;5093160;28;20327;-59
2023/12/19 00:53:37;;;;;;;2.40;1.20;;;;;;;3.06;81.18;99223.00;5093157;28;20328;-58
2023/12/19 00:56:08;;;;;;;1.27;1.00;;;;;;;3.10;80.91;99214.78;5076753;28;20032;-56
2023/12/19 00:58:37;;;;;;;1.38;1.20;;;;;;;3.08;80.94;99214.03;5072545;28;20093;-61
2023/12/19 01:01:07;;;;;;;1.50;1.20;;;;;;;3.18;80.88;99219.63;5077100;28;20146;-60
2023/12/19 01:03:33;;;;;;;3.25;1.45;;;;;;;3.17;80.81;99212.63;5092579;28;20342;-60
2023/12/19 01:06:02;;;;;;;2.75;1.45;;;;;;;3.22;81.03;99220.28;5092710;28;20362;-58
2023/12/19 01:08:28;;;;;;;2.00;1.23;;;;;;;3.19;80.06;99215.16;5092928;28;20043;-58
2023/12/19 01:10:55;;;;;;;2.45;1.20;;;;;;;3.16;80.26;99227.63;5092833;28;20075;-59
2023/12/19 01:13:21;;;;;;;3.42;1.40;;;;;;;3.18;80.34;99219.63;5092588;28;20507;-60
2023/12/19 01:15:47;;;;;;;1.33;1.13;;;;;;;3.14;80.51;99223.41;5086971;28;20086;-60
2023/12/19 01:18:13;;;;;;;1.70;0.95;;;;;;;3.18;80.41;99224.91;5072463;28;20044;-58
2023/12/19 01:20:39;;;;;;;2.78;1.00;;;;;;;3.21;81.14;99227.38;5072295;28;20032;-58
2023/12/19 01:23:05;;;;;;;3.13;1.20;;;;;;;3.19;80.94;99225.75;5072340;28;20036;-57
2023/12/19 01:25:31;;;;;;;1.48;0.98;;;;;;;2.93;79.89;99178.78;5072453;28;20025;-58
2023/12/19 01:27:57;;;;;;;1.30;0.93;;;;;;;3.17;80.09;99220.56;5072490;28;20045;-58
2023/12/19 01:30:23;;;;;;;1.65;1.10;;;;;;;3.16;80.89;99232.94;5076236;28;20039;-59
2023/12/19 01:32:49;;;;;;;1.33;0.90;;;;;;;3.15;80.67;99225.09;5092556;28;20024;-58
2023/12/19 01:35:15;;;;;;;2.38;1.00;;;;;;;3.15;80.93;99217.16;5092683;28;20020;-58
2023/12/19 01:37:42;;;;;;;1.90;0.75;;;;;;;3.18;81.11;99229.34;5091630;28;20032;-57
2023/12/19 01:40:08;;;;;;;1.35;0.88;;;;;;;3.12;80.98;99223.47;5087521;28;20044;-56
2023/12/19 01:42:34;;;;;;;1.15;0.70;;;;;;;3.22;80.97;99231.72;5071803;28;20028;-58
2023/12/19 01:45:08;;;;;;;2.28;0.80;;;;;;;3.30;80.85;99239.22;5079394;28;20020;-57
2023/12/19 01:47:34;;;;;;;1.00;0.90;;;;;;;3.22;80.39;99220.28;5092378;28;20039;-58
2023/12/19 01:50:00;;;;;;;2.92;0.75;;;;;;;3.20;80.82;99217.75;5089168;28;20028;-60
2023/12/19 01:52:25;;;;;;;1.52;1.10;;;;;;;3.30;80.17;99224.16;5072227;28;20355;-57
2023/12/19 01:54:52;;;;;;;1.15;0.98;;;;;;;3.27;80.64;99223.53;5072165;28;20119;-60
2023/12/19 01:57:18;;;;;;;1.40;0.90;;;;;;;3.22;80.56;99226.44;5071797;28;20533;-57
2023/12/19 01:59:45;;;;;;;1.00;0.90;;;;;;;3.21;80.59;99219.44;5073199;28;20105;-57
2023/12/19 02:02:10;;;;;;;2.33;0.90;;;;;;;3.22;80.24;99231.72;5072411;28;20462;-58
2023/12/19 02:04:36;;;;;;;1.10;1.00;;;;;;;3.19;80.46;99220.47;5071115;28;20036;-61
2023/12/19 02:07:02;;;;;;;2.15;1.00;;;;;;;3.26;80.35;99229.75;5071154;28;20028;-57
2023/12/19 02:09:27;;;;;;;2.05;1.08;;;;;;;3.24;80.90;99229.84;5073149;28;20032;-59
2023/12/19 02:11:53;;;;;;;1.55;1.20;;;;;;;3.23;80.97;99233.44;5072305;28;20899;-60
2023/12/19 02:14:18;;;;;;;1.65;1.20;;;;;;;3.28;81.24;99226.06;5071946;28;20025;-56
2023/12/19 02:16:44;;;;;;;1.40;1.30;;;;;;;3.27;80.87;99229.66;5071904;28;20424;-59
2023/12/19 02:19:12;;;;;;;2.33;1.38;;;;;;;3.22;80.98;99220.28;5072223;28;20121;-60
2023/12/19 02:21:38;;;;;;;1.58;1.48;;;;;;;3.26;81.53;99222.66;5071998;28;20055;-59
2023/12/19 02:24:04;;;;;;;2.63;1.42;;;;;;;3.16;80.62;99187.13;5084108;28;20118;-56
2023/12/19 02:26:31;;;;;;;2.60;1.55;;;;;;;3.30;81.66;99202.16;5092227;28;20112;-60
2023/12/19 02:28:57;;;;;;;2.80;1.40;;;;;;;3.33;nan;99207.28;5092141;28;20383;-59
2023/12/19 02:31:22;;;;;;;1.50;1.33;;;;;;;3.31;81.01;99203.88;5092225;28;20032;-58
2023/12/19 02:33:48;;;;;;;3.17;1.17;;;;;;;3.23;81.20;99196.38;5090418;28;20020;-56
2023/12/19 02:36:16;;;;;;;2.33;1.10;;;;;;;3.29;81.12;99208.41;5085921;28;20108;-59
2023/12/19 02:38:42;;;;;;;1.35;1.10;;;;;;;3.23;81.22;99195.53;5090794;28;20383;-60
2023/12/19 02:41:10;;;;;;;1.42;1.30;;;;;;;3.20;81.35;99199.22;5074491;28;20037;-59
2023/12/19 02:43:36;;;;;;;1.92;1.15;;;;;;;3.18;81.48;99203.75;5085165;28;20054;-53
2023/12/19 02:46:02;;;;;;;1.30;1.20;;;;;;;3.18;80.75;99194.94;5092936;28;20047;-57
2023/12/19 02:48:27;;;;;;;2.38;1.20;;;;;;;3.22;82.17;99220.28;5094505;28;20028;-60
2023/12/19 02:50:53;;;;;;;1.60;1.20;;;;;;;3.24;81.50;99203.38;5095664;28;20024;-59
2023/12/19 02:53:19;;;;;;;3.10;1.15;;;;;;;3.23;80.89;99206.09;5095599;28;20136;-55
2023/12/19 02:55:44;;;;;;;1.20;1.10;;;;;;;3.19;81.09;99200.16;5095217;28;20457;-58
2023/12/19 02:58:10;;;;;;;2.35;1.40;;;;;;;3.20;81.42;99204.50;5095184;28;20051;-60
2023/12/19 03:00:35;;;;;;;1.63;1.30;;;;;;;3.21;81.98;99208.00;5095939;28;20169;-60
2023/12/19 03:03:01;;;;;;;1.63;1.27;;;;;;;3.21;81.90;99208.84;5080231;28;20362;-59
2023/12/19 03:05:26;;;;;;;2.03;1.25;;;;;;;3.20;81.01;99211.59;5076405;28;20382;-61
2023/12/19 03:07:52;;;;;;;3.72;1.30;;;;;;;3.21;81.17;99208.84;5094803;28;20035;-58
2023/12/19 03:10:18;;;;;;;1.70;1.30;;;;;;;3.19;80.77;99194.00;5094744;28;20051;-57
2023/12/19 03:12:44;;;;;;;1.35;1.00;;;;;;;3.17;80.62;99194.13;5093774;28;20059;-60
2023/12/19 03:15:10;;;;;;;1.10;1.00;;;;;;;3.16;80.03;99195.06;5094911;28;20035;-58
2023/12/19 03:17:35;;;;;;;1.17;1.05;;;;;;;2.96;80.89;99164.50;5081745;28;20068;-60
2023/12/19 03:20:01;;;;;;;1.00;0.90;;;;;;;3.07;80.44;99185.88;5080916;28;20415;-59
2023/12/19 03:22:29;;;;;;;2.28;1.00;;;;;;;3.08;81.16;99203.44;5094572;28;20024;-59
2023/12/19 03:24:57;;;;;;;1.10;1.00;;;;;;;3.11;80.71;99203.25;5086587;28;20021;-58
2023/12/19 03:27:23;;;;;;;0.68;0.68;;;;;;;3.11;80.24;99197.09;5074165;28;20052;-57
2023/12/19 03:29:51;;;;;;;0.50;0.50;;;;;;;3.04;80.07;99199.28;5074183;28;20135;-59
2023/12/19 03:32:16;;;;;;;0.70;0.70;;;;;;;2.99;80.36;99188.13;5075456;28;20048;-59
2023/12/19 03:34:42;;;;;;;1.48;0.70;;;;;;;2.97;79.93;99182.06;5074481;28;20024;-56
2023/12/19 03:37:08;;;;;;;1.02;0.70;;;;;;;2.98;80.27;99186.41;5074020;28;20036;-60
2023/12/19 03:39:33;;;;;;;2.15;0.60;;;;;;;2.96;80.21;99189.16;5074400;28;20499;-59
2023/12/19 03:41:59;;;;;;;1.10;0.65;;;;;;;2.94;80.21;99182.25;5074135;28;20116;-59
2023/12/19 03:44:25;;;;;;;1.52;0.63;;;;;;;2.89;80.09;99176.41;5073665;28;20024;-54
2023/12/19 03:46:50;;;;;;;2.15;0.55;;;;;;;2.91;79.87;99185.94;5088061;28;20036;-54
2023/12/19 03:49:16;;;;;;;1.25;0.55;;;;;;;2.86;79.81;99182.69;5094567;28;20081;-53
2023/12/19 03:51:41;;;;;;;2.00;0.45;;;;;;;2.84;79.83;99185.44;5094230;28;20089;-52
2023/12/19 03:54:07;;;;;;;0.60;0.40;;;;;;;2.86;79.85;99185.34;5092921;28;20020;-56
2023/12/19 03:56:32;;;;;;;1.05;0.50;;;;;;;2.89;80.24;99186.97;5093327;28;20032;-57
2023/12/19 03:58:58;;;;;;;1.95;0.40;;;;;;;2.89;80.78;99190.44;5091554;28;20328;-55
2023/12/19 04:01:25;;;;;;;1.50;0.32;;;;;;;2.70;80.59;99158.97;5077135;28;20033;-54
2023/12/19 04:03:51;;;;;;;0.20;0.20;;;;;;;2.86;79.66;99186.22;5073848;28;20036;-53
2023/12/19 04:06:16;;;;;;;1.17;0.20;;;;;;;2.85;79.48;99187.16;5073903;28;20056;-52
2023/12/19 04:08:42;;;;;;;2.28;0.60;;;;;;;2.82;79.81;99189.13;5111055;28;20418;-58
2023/12/19 04:11:07;;;;;;;0.70;0.32;;;;;;;2.77;79.97;99177.97;5074699;28;20028;-58
2023/12/19 04:13:33;;;;;;;1.23;0.50;;;;;;;2.83;80.38;99180.25;5073348;28;20029;-59
2023/12/19 04:15:58;;;;;;;1.60;0.50;;;;;;;2.82;80.58;99181.19;5074626;28;20447;-59
2023/12/19 04:18:24;;;;;;;1.23;0.60;;;;;;;2.85;79.83;99181.00;5073558;28;20039;-58
2023/12/19 04:20:49;;;;;;;3.08;0.70;;;;;;;2.85;79.43;99188.94;5073249;28;20040;-58
2023/12/19 04:23:15;;;;;;;0.70;0.65;;;;;;;2.85;79.93;99181.88;5073306;28;20036;-59
2023/12/19 04:25:41;;;;;;;1.55;0.60;;;;;;;2.90;79.96;99178.09;5072843;28;20028;-56
2023/12/19 04:28:07;;;;;;;2.78;0.70;;;;;;;2.65;79.57;99126.69;5073806;28;20059;-59
2023/12/19 04:30:33;;;;;;;2.42;0.70;;;;;;;2.85;80.01;99159.84;5082845;28;20189;-61
2023/12/19 04:32:58;;;;;;;2.58;0.80;;;;;;;2.89;79.84;99156.06;5093233;28;20106;-58
2023/12/19 04:35:24;;;;;;;1.75;0.70;;;;;;;2.82;79.12;99141.53;5092639;28;20067;-55
2023/12/19 04:37:50;;;;;;;1.88;0.98;;;;;;;2.87;79.02;99148.25;5093496;28;20031;-56
2023/12/19 04:40:15;;;;;;;1.10;0.90;;;;;;;2.83;79.53;99137.94;5093157;28;20485;-60
2023/12/19 04:42:41;;;;;;;1.98;1.00;;;;;;;2.81;79.90;99135.41;5093348;28;20428;-56
2023/12/19 04:45:07;;;;;;;2.45;1.27;;;;;;;2.83;79.91;99132.66;5084282;28;20085;-59
2023/12/19 04:47:32;;;;;;;2.25;1.35;;;;;;;2.85;79.39;99125.47;5072926;28;20024;-59
2023/12/19 04:49:58;;;;;;;2.03;1.13;;;;;;;2.85;79.12;99128.13;5072637;28;20040;-59
2023/12/19 04:52:23;;;;;;;2.38;1.05;;;;;;;2.76;79.62;99118.09;5072733;28;20065;-56
2023/12/19 04:54:49;;;;;;;1.05;0.95;;;;;;;2.60;79.24;99094.38;5087987;28;20036;-51
2023/12/19 04:57:15;;;;;;;2.80;1.00;;;;;;;2.82;78.91;99115.09;5092909;28;20031;-52
2023/12/19 04:59:41;;;;;;;4.18;1.40;;;;;;;2.84;79.11;99127.28;5085053;28;20028;-55
2023/12/19 05:02:06;;;;;;;4.32;1.60;;;;;;;2.78;78.82;99116.22;5072881;28;20052;-51
2023/12/19 05:04:32;;;;;;;1.92;1.25;;;;;;;2.71;79.14;99105.16;5072439;28;20067;-53
2023/12/19 05:06:57;;;;;;;2.28;1.23;;;;;;;2.72;78.76;99104.22;5071532;28;20495;-51
2023/12/19 05:09:25;;;;;;;3.10;1.45;;;;;;;2.77;78.21;99098.66;5072635;28;20029;-51
2023/12/19 05:11:51;;;;;;;2.45;1.45;;;;;;;2.72;78.75;99099.78;5072529;28;20349;-51
2023/12/19 05:14:16;;;;;;;4.53;2.00;;;;;;;2.39;79.10;99050.63;5077978;28;20048;-51
2023/12/19 05:16:42;;;;;;;4.15;2.20;;;;;;;2.71;79.79;99089.31;5092659;28;20042;-57
2023/12/19 05:19:07;;;;;;;4.78;1.58;;;;;;;2.74;79.20;99107.63;5089585;28;20324;-57
2023/12/19 05:21:39;;;;;;;2.60;1.38;;;;;;;2.79;78.63;99112.63;5072367;28;20067;-58
2023/12/19 05:24:05;;;;;;;2.20;1.48;;;;;;;2.67;78.99;99101.88;5072012;28;20366;-59
2023/12/19 05:26:31;;;;;;;3.33;1.40;;;;;;;2.77;78.68;99110.06;5072187;28;20115;-54
2023/12/19 05:28:57;;;;;;;4.28;1.50;;;;;;;2.72;78.60;99114.78;5077118;28;20048;-58
2023/12/19 05:31:22;;;;;;;4.65;1.52;;;;;;;2.69;78.92;99122.91;5092185;28;20036;-55
2023/12/19 05:33:48;;;;;;;2.47;1.38;;;;;;;2.68;78.85;99092.13;5091166;28;20100;-58
2023/12/19 05:36:14;;;;;;;1.48;1.30;;;;;;;2.64;79.04;99086.16;5092860;28;20024;-54
2023/12/19 05:38:39;;;;;;;1.88;1.15;;;;;;;2.66;78.62;99067.59;5091772;28;20119;-55
2023/12/19 05:41:05;;;;;;;11.80;1.90;;;;;;;2.62;78.92;99066.91;5091913;28;20030;-58
2023/12/19 05:43:31;;;;;;;3.88;1.67;;;;;;;2.54;78.88;99048.91;5087622;28;20028;-58
2023/12/19 05:45:57;;;;;;;4.68;1.80;;;;;;;2.59;78.87;99061.81;5071189;28;20123;-56
2023/12/19 05:48:23;;;;;;;2.35;1.90;;;;;;;2.61;79.33;99046.72;5071504;28;20170;-61
2023/12/19 05:50:49;;;;;;;1.88;1.63;;;;;;;2.64;78.58;99046.53;5071827;28;20039;-57
2023/12/19 05:53:15;;;;;;;4.47;2.00;;;;;;;2.66;79.33;99039.38;5072527;28;20049;-57
2023/12/19 05:55:42;;;;;;;3.70;1.80;;;;;;;2.62;79.14;99037.84;5070255;28;20343;-56
2023/12/19 05:58:08;;;;;;;4.60;2.92;;;;;;;2.65;79.00;99029.75;5072465;28;20029;-60
2023/12/19 06:00:34;;;;;;;4.85;2.80;;;;;;;2.70;78.52;99032.97;5072886;28;20314;-56
2023/12/19 06:03:00;;;;;;;4.22;3.03;;;;;;;2.67;79.04;99043.72;5071161;28;20367;-53
2023/12/19 06:05:25;;;;;;;2.42;2.22;;;;;;;2.68;78.12;99048.06;5075485;28;20036;-55
2023/12/19 06:07:51;;;;;;;2.95;2.20;;;;;;;2.64;77.61;99035.94;5071796;28;20550;-55
2023/12/19 06:10:17;;;;;;;2.58;2.00;;;;;;;2.60;78.42;99042.38;5071672;28;20420;-55
2023/12/19 06:12:44;;;;;;;2.53;1.50;;;;;;;2.54;78.05;99032.19;5075209;28;20471;-59
2023/12/19 06:15:13;;;;;;;5.28;1.65;;;;;;;2.62;78.05;99034.38;5075903;28;20024;-56
2023/12/19 06:17:42;;;;;;;3.67;1.50;;;;;;;2.55;77.63;99020.66;5091635;28;20119;-53
2023/12/19 06:20:10;;;;;;;1.33;1.20;;;;;;;2.60;77.50;99031.78;5094446;28;20483;-58
2023/12/19 06:22:36;;;;;;;3.78;1.02;;;;;;;2.58;77.24;99041.63;5095753;28;20032;-56
2023/12/19 06:25:01;;;;;;;1.75;1.13;;;;;;;2.58;77.09;99041.63;5094304;28;20370;-62
2023/12/19 06:27:32;;;;;;;2.45;1.40;;;;;;;2.55;77.15;99041.81;5084171;28;20449;-62
2023/12/19 06:29:58;;;;;;;3.33;1.40;;;;;;;2.56;77.77;99035.56;5092975;28;20072;-62
2023/12/19 06:32:24;;;;;;;2.67;1.38;;;;;;;2.01;78.14;98948.13;5087020;28;20527;-62
2023/12/19 06:34:49;;;;;;;2.28;1.38;;;;;;;2.49;77.24;99010.47;5081893;28;20059;-62
2023/12/19 06:37:15;;;;;;;3.05;1.60;;;;;;;2.54;77.58;99022.47;5094512;28;20450;-59
2023/12/19 06:39:40;;;;;;;1.73;1.30;;;;;;;2.53;77.82;99018.13;5095537;28;20028;-55
2023/12/19 06:42:06;;;;;;;2.78;1.65;;;;;;;2.52;78.45;99010.28;5095188;28;20057;-59
2023/12/19 06:44:31;;;;;;;2.38;1.65;;;;;;;2.54;78.43;99003.97;5094683;28;20103;-62
2023/12/19 06:46:57;;;;;;;5.40;3.28;;;;;;;2.61;78.40;99009.72;5077828;28;20354;-59
2023/12/19 06:49:24;;;;;;;5.55;2.97;;;;;;;2.35;78.63;98951.38;5073606;28;20047;-61
2023/12/19 06:51:50;;;;;;;2.95;2.45;;;;;;;2.68;79.13;98996.97;5074855;28;20111;-61
2023/12/19 06:54:16;;;;;;;4.13;2.28;;;;;;;2.41;78.65;98961.59;5082750;28;20112;-62
2023/12/19 06:56:42;;;;;;;3.95;2.70;;;;;;;2.78;78.14;99005.19;5094641;28;20070;-61
2023/12/19 06:59:07;;;;;;;4.65;3.10;;;;;;;2.69;78.33;98982.81;5094443;28;20032;-61
2023/12/19 07:01:34;;;;;;;4.40;3.13;;;;;;;2.85;78.21;98980.94;5079080;28;20115;-60
2023/12/19 07:03:59;;;;;;;4.75;3.10;;;;;;;2.91;78.86;98979.72;5074341;28;20115;-61
2023/12/19 07:06:25;;;;;;;4.20;2.88;;;;;;;2.94;78.54;98984.81;5074327;28;20036;-59
2023/12/19 07:08:51;;;;;;;4.50;2.65;;;;;;;3.01;78.42;98970.25;5073581;28;20394;-59
2023/12/19 07:11:17;;;;;;;5.05;2.50;;;;;;;3.06;78.06;98988.47;5074491;28;20092;-61
2023/12/19 07:13:44;;;;;;;2.40;2.20;;;;;;;3.09;77.69;98977.69;5074144;28;20024;-63
2023/12/19 07:16:14;;;;;;;5.75;2.72;;;;;;;3.13;77.78;98973.03;5088005;28;20039;-63
2023/12/19 07:18:40;;;;;;;3.70;2.80;;;;;;;3.13;76.53;98973.03;5094168;28;20415;-61
2023/12/19 07:21:07;;;;;;;3.67;2.65;;;;;;;3.05;77.64;98970.91;5092189;28;20346;-60
2023/12/19 07:23:32;;;;;;;3.00;2.67;;;;;;;3.08;77.97;98951.31;5078467;28;20093;-61
2023/12/19 07:25:58;;;;;;;4.68;2.38;;;;;;;3.09;78.18;98937.16;5073849;28;20040;-60
2023/12/19 07:28:23;;;;;;;4.10;2.58;;;;;;;3.14;77.36;98949.16;5073714;28;20424;-61
2023/12/19 07:30:49;;;;;;;4.88;3.30;;;;;;;3.12;77.29;98934.31;5074347;28;20366;-61
2023/12/19 07:33:15;;;;;;;3.13;2.67;;;;;;;3.20;77.43;98928.53;5073900;28;20029;-61
2023/12/19 07:35:41;;;;;;;4.18;3.03;;;;;;;3.24;76.84;98919.44;5079891;28;20512;-61
2023/12/19 07:38:08;;;;;;;4.53;2.78;;;;;;;3.25;77.34;98916.72;5092126;28;20036;-58
2023/12/19 07:40:33;;;;;;;3.25;2.50;;;;;;;3.32;77.52;98903.06;5094287;28;20032;-59
2023/12/19 07:42:59;;;;;;;5.25;2.60;;;;;;;3.29;76.98;98891.75;5093830;28;20036;-62
2023/12/19 07:45:24;;;;;;;4.00;2.45;;;;;;;3.33;77.56;98910.94;5091982;28;20520;-58
2023/12/19 07:47:52;;;;;;;4.88;3.38;;;;;;;3.35;76.90;98911.66;5075691;28;20047;-62
2023/12/19 07:50:17;;;;;;;5.03;3.13;;;;;;;3.37;77.05;98898.31;5074196;28;20035;-61
2023/12/19 07:52:43;;;;;;;6.78;2.75;;;;;;;3.41;76.72;98895.38;5083457;28;20028;-60
2023/12/19 07:55:10;;;;;;;6.30;3.20;;;;;;;3.45;76.93;98894.22;5093717;28;20028;-59
2023/12/19 07:57:39;;;;;;;8.25;3.47;;;;;;;3.40;77.59;98891.03;5094271;28;20039;-59
2023/12/19 08:00:07;;;;;;;5.60;3.38;;;;;;;3.49;76.83;98897.53;5093834;28;20039;-62
2023/12/19 08:02:32;;;;;;;5.63;2.90;;;;;;;3.56;76.41;98884.75;5093467;28;20520;-62
2023/12/19 08:04:58;;;;;;;6.40;3.03;;;;;;;3.54;76.60;98890.13;5093874;28;20116;-61
2023/12/19 08:07:24;;;;;;;3.47;2.83;;;;;;;3.53;76.93;98890.25;5092159;28;20450;-60
2023/12/19 08:09:49;;;;;;;4.50;3.10;;;;;;;3.56;77.02;98880.28;5094191;28;20089;-61
2023/12/19 08:12:15;;;;;;;6.63;3.08;;;;;;;3.64;76.55;98871.00;5085863;28;20089;-62
2023/12/19 08:14:40;;;;;;;5.82;3.15;;;;;;;3.60;76.71;98859.75;5073156;28;20040;-60
2023/12/19 08:17:06;;;;;;;4.38;3.00;;;;;;;3.67;76.32;98863.69;5073443;28;20090;-61
2023/12/19 08:19:31;;;;;;;7.20;3.55;;;;;;;3.64;76.22;98866.53;5073301;28;20032;-56
2023/12/19 08:21:58;;;;;;;4.35;3.10;;;;;;;3.61;76.43;98871.19;5081479;28;20024;-54
2023/12/19 08:24:25;;;;;;;4.55;2.92;;;;;;;3.62;76.34;98872.88;5086824;28;20443;-59
2023/12/19 08:26:52;;;;;;;5.53;3.35;;;;;;;3.33;76.55;98817.47;5088249;28;20040;-62
2023/12/19 08:29:18;;;;;;;3.95;3.03;;;;;;;3.65;76.04;98854.16;5092790;28;20139;-62
2023/12/19 08:31:48;;;;;;;4.10;2.42;;;;;;;3.54;76.39;98837.19;5092010;28;20305;-62
2023/12/19 08:34:17;;;;;;;4.75;2.78;;;;;;;3.65;76.38;98841.75;5092090;28;20032;-63
2023/12/19 08:36:43;;;;;;;4.32;2.50;;;;;;;3.65;76.11;98822.41;5092073;28;20437;-62
2023/12/19 08:39:10;;;;;;;3.58;2.28;;;;;;;3.67;75.90;98818.69;5088120;28;20043;-61
2023/12/19 08:41:39;;;;;;;3.20;2.10;;;;;;;3.65;75.44;98809.16;5083200;28;20039;-62
2023/12/19 08:44:04;;;;;;;3.35;2.17;;;;;;;3.68;75.36;98806.31;5072032;28;20347;-61
2023/12/19 08:46:30;;;;;;;4.82;2.10;;;;;;;3.66;75.08;98792.31;5072634;28;20028;-62
2023/12/19 08:48:56;;;;;;;4.32;2.20;;;;;;;3.64;75.73;98787.13;5077614;28;20036;-60
2023/12/19 08:51:22;;;;;;;4.90;2.17;;;;;;;3.66;75.24;98779.94;5083772;28;20028;-60
2023/12/19 08:53:47;;;;;;;2.78;2.20;;;;;;;3.55;75.24;98762.13;5081152;28;20039;-60
2023/12/19 08:56:13;;;;;;;4.85;2.22;;;;;;;3.54;75.24;98763.09;5079806;28;20362;-61
2023/12/19 08:58:39;;;;;;;4.47;2.42;;;;;;;3.26;74.63;98720.00;5088747;28;20040;-55
2023/12/19 09:01:04;;;;;;;5.95;2.17;;;;;;;3.61;74.24;98763.53;5094625;28;20350;-55
2023/12/19 09:03:30;;;;;;;3.67;2.40;;;;;;;3.59;74.29;98747.72;5076928;28;20427;-57
2023/12/19 09:05:55;;;;;;;4.68;2.20;;;;;;;3.56;74.63;98755.06;5092578;28;20506;-57
2023/12/19 09:08:21;;;;;;;3.47;2.10;;;;;;;3.60;74.27;98745.94;5089814;28;20107;-56
2023/12/19 09:10:46;;;;;;;3.80;2.03;;;;;;;3.54;74.46;98728.69;5088069;28;20035;-57
2023/12/19 09:13:12;;;;;;;3.33;1.95;;;;;;;3.53;74.41;98727.00;5070675;28;20036;-58
2023/12/19 09:15:37;;;;;;;4.20;2.20;;;;;;;3.56;73.95;98708.25;5072392;28;20439;-52
2023/12/19 09:18:04;;;;;;;2.42;1.85;;;;;;;3.47;74.42;98703.59;5084541;28;20461;-54
2023/12/19 09:20:30;;;;;;;5.53;2.25;;;;;;;3.47;74.71;98703.59;5081548;28;20107;-56
2023/12/19 09:22:56;;;;;;;7.63;2.22;;;;;;;3.50;74.52;98690.16;5103225;28;20442;-56
2023/12/19 09:25:21;;;;;;;2.28;1.88;;;;;;;3.21;75.01;98637.47;5111259;28;20038;-60
2023/12/19 09:27:48;;;;;;;2.28;1.60;;;;;;;3.50;74.43;98684.03;5079104;28;20454;-57
2023/12/19 09:30:15;;;;;;;4.80;1.90;;;;;;;3.42;74.70;98685.38;5073299;28;20041;-58
2023/12/19 09:32:42;;;;;;;3.80;1.67;;;;;;;3.43;74.49;98673.84;5071590;28;20178;-56
2023/12/19 09:35:10;;;;;;;3.03;2.10;;;;;;;3.39;74.62;98660.97;5071102;28;20107;-59
2023/12/19 09:37:37;;;;;;;5.30;2.00;;;;;;;3.42;74.06;98666.88;5087141;28;20099;-57
2023/12/19 09:40:03;;;;;;;3.85;1.90;;;;;;;3.32;74.26;98659.69;5091340;28;20043;-58
2023/12/19 09:42:31;;;;;;;2.20;1.73;;;;;;;3.35;74.69;98656.81;5091850;28;20031;-58
2023/12/19 09:44:57;;;;;;;3.92;1.70;;;;;;;3.32;74.72;98622.63;5082622;28;20100;-59
2023/12/19 09:47:24;;;;;;;5.28;1.50;;;;;;;3.30;74.31;98615.66;5091925;28;20032;-57
2023/12/19 09:49:54;;;;;;;2.40;1.20;;;;;;;3.43;73.48;98606.88;5081171;28;20052;-56
2023/12/19 09:52:24;;;;;;;4.95;1.67;;;;;;;3.42;73.76;98600.72;5088069;28;20027;-56
2023/12/19 09:54:51;;;;;;;3.33;1.60;;;;;;;3.34;73.50;98607.50;5095910;28;20114;-58
2023/12/19 09:57:21;;;;;;;3.53;1.20;;;;;;;3.41;73.47;98617.56;5095586;28;20518;-56
2023/12/19 09:59:47;;;;;;;2.45;1.30;;;;;;;3.34;73.42;98626.03;5083863;28;20455;-56
2023/12/19 10:02:20;;;;;;;2.28;1.58;;;;;;;3.28;73.87;98600.88;5087543;28;20370;-59
2023/12/19 10:04:45;;;;;;;3.25;1.80;;;;;;;3.30;74.31;98610.38;5070763;28;20348;-60
2023/12/19 10:07:11;;;;;;;1.92;1.65;;;;;;;3.32;74.45;98596.19;5084419;28;20065;-63
2023/12/19 10:09:56;;;;;;;3.40;1.75;;;;;;;3.45;74.24;98581.16;5095522;28;20035;-60
2023/12/19 10:12:27;;;;;;;2.88;1.92;;;;;;;3.42;73.83;98568.13;5095935;28;20360;-60
2023/12/19 10:15:10;;;;;;;3.22;1.90;;;;;;;3.41;73.77;98558.50;5082106;28;20036;-60
2023/12/19 10:17:37;;;;;;;3.35;1.40;;;;;;;3.52;73.46;98548.00;5092527;28;20068;-62
2023/12/19 10:20:10;;;;;;;4.97;1.80;;;;;;;3.51;73.60;98541.00;5083823;28;20038;-59
2023/12/19 10:22:37;;;;;;;5.55;1.83;;;;;;;3.40;73.79;98536.47;5079071;28;20177;-55
2023/12/19 10:25:03;;;;;;;5.45;2.03;;;;;;;3.38;74.21;98527.81;5074581;28;20032;-55
2023/12/19 10:27:30;;;;;;;4.60;1.73;;;;;;;3.22;73.30;98493.69;5075509;28;20348;-59
2023/12/19 10:30:21;;;;;;;2.05;1.70;;;;;;;3.56;73.24;98522.97;5092435;28;20050;-54
2023/12/19 10:32:46;;;;;;;3.28;1.90;;;;;;;3.36;73.51;98513.00;5094355;28;20059;-59
2023/12/19 10:35:12;;;;;;;3.00;1.80;;;;;;;3.33;73.74;98518.50;5088068;28;20032;-58
2023/12/19 10:37:39;;;;;;;4.55;3.42;;;;;;;3.38;73.16;98504.00;5093445;28;20032;-58
2023/12/19 10:40:14;;;;;;;3.63;2.10;;;;;;;3.38;73.57;98504.00;5076571;28;20528;-59
2023/12/19 10:42:40;;;;;;;2.72;1.25;;;;;;;3.40;73.19;98488.84;5065380;28;20043;-61
2023/12/19 10:45:06;;;;;;;5.03;1.50;;;;;;;3.38;73.67;98489.94;5082962;28;20033;-58
2023/12/19 10:47:32;;;;;;;3.05;1.77;;;;;;;3.34;73.77;98478.72;5079355;28;20165;-54
2023/12/19 10:49:58;;;;;;;4.45;1.48;;;;;;;3.32;73.77;98475.34;5094092;28;20028;-60
2023/12/19 10:52:28;;;;;;;3.20;1.27;;;;;;;3.28;74.03;98453.56;5088352;28;20020;-69
2023/12/19 10:55:04;;;;;;;3.13;1.35;;;;;;;3.28;73.85;98458.84;5093423;28;20039;-61
2023/12/19 10:57:35;;;;;;;4.28;1.67;;;;;;;3.33;74.03;98452.38;5086460;28;20080;-60
2023/12/19 11:00:10;;;;;;;2.60;1.65;;;;;;;3.35;74.13;98448.66;5093698;28;20111;-63
2023/12/19 11:02:51;;;;;;;3.95;1.50;;;;;;;3.34;74.67;98423.16;5083644;28;20047;-63
2023/12/19 11:05:19;;;;;;;4.07;1.60;;;;;;;3.39;73.32;98426.31;5084287;28;20044;-64
2023/12/19 11:07:49;;;;;;;3.17;1.70;;;;;;;3.06;74.25;98374.09;5082548;28;20415;-62
2023/12/19 11:10:20;;;;;;;4.85;1.80;;;;;;;3.33;74.27;98412.69;5091536;28;20075;-63
2023/12/19 11:12:46;;;;;;;2.25;1.55;;;;;;;3.39;73.77;98402.50;5079330;28;20413;-60
2023/12/19 11:15:12;;;;;;;2.13;1.55;;;;;;;3.29;73.60;98396.22;5077372;28;20050;-57
2023/12/19 11:17:38;;;;;;;5.30;1.80;;;;;;;3.31;74.15;98412.81;5077228;28;20078;-60
2023/12/19 11:20:13;;;;;;;4.80;2.17;;;;;;;3.28;74.11;98378.66;5075565;28;20040;-55
2023/12/19 11:23:01;;;;;;;2.92;1.65;;;;;;;3.32;74.29;98351.00;5082336;28;20032;-56
2023/12/19 11:25:51;;;;;;;3.42;1.58;;;;;;;3.33;74.37;98358.00;5073560;28;20422;-53
2023/12/19 11:28:16;;;;;;;4.95;1.63;;;;;;;3.30;74.19;98352.94;5091643;28;20077;-54
2023/12/19 11:30:43;;;;;;;2.50;1.70;;;;;;;3.27;74.31;98353.16;5094209;28;20032;-58
2023/12/19 11:33:11;;;;;;;4.85;2.15;;;;;;;3.33;74.50;98360.63;5093922;28;20093;-56
2023/12/19 11:35:37;;;;;;;5.57;1.65;;;;;;;3.30;74.65;98367.00;5093891;28;20115;-59
2023/12/19 11:38:15;;;;;;;3.78;1.73;;;;;;;3.41;75.57;98346.84;5091747;28;20115;-57